createdAt,value
2019-02-26T00:00:49.487Z,17.47
2019-02-26T00:03:23.915Z,19.33
2019-02-26T00:05:54.892Z,20.20
2019-02-26T00:08:29.097Z,17.53
2019-02-26T00:11:01.278Z,18.60
2019-02-26T00:13:44.802Z,18.40
2019-02-26T00:16:18.381Z,17.80
2019-02-26T00:18:49.181Z,19.07
2019-02-26T00:21:22.647Z,17.00
2019-02-26T00:23:53.501Z,17.20
2019-02-26T00:26:25.013Z,17.80
2019-02-26T00:28:57.333Z,18.23
2019-02-26T00:31:30.445Z,16.30
2019-02-26T00:34:02.042Z,17.93
2019-02-26T00:36:34.306Z,18.00
2019-02-26T00:39:07.760Z,18.67
2019-02-26T00:41:40.437Z,18.40
2019-02-26T00:44:11.695Z,18.73
2019-02-26T00:46:42.981Z,19.23
2019-02-26T00:49:14.038Z,17.83
2019-02-26T00:51:46.508Z,17.33
2019-02-26T00:54:20.177Z,16.47
2019-02-26T00:56:51.354Z,19.43
2019-02-26T00:59:22.575Z,17.87
2019-02-26T01:01:54.867Z,18.70
2019-02-26T01:04:26.819Z,18.53
2019-02-26T01:06:59.130Z,19.33
2019-02-26T01:09:31.924Z,18.13
2019-02-26T01:12:04.274Z,19.23
2019-02-26T01:14:36.411Z,18.60
2019-02-26T01:17:09.848Z,18.80
2019-02-26T01:19:42.883Z,19.27
2019-02-26T01:22:13.888Z,18.80
2019-02-26T01:24:45.005Z,18.10
2019-02-26T01:27:16.249Z,17.37
2019-02-26T01:29:51.226Z,18.33
2019-02-26T01:32:22.313Z,19.50
2019-02-26T01:34:53.378Z,18.80
2019-02-26T01:37:25.364Z,19.37
2019-02-26T01:39:57.665Z,17.73
2019-02-26T01:42:31.214Z,17.50
2019-02-26T01:45:01.825Z,17.43
2019-02-26T01:47:33.190Z,18.47
2019-02-26T01:50:07.118Z,20.03
2019-02-26T01:52:39.273Z,17.83
2019-02-26T01:55:11.332Z,18.10
2019-02-26T01:57:43.734Z,18.80
2019-02-26T02:00:16.153Z,18.23
2019-02-26T02:02:47.844Z,17.30
2019-02-26T02:05:19.731Z,17.30
2019-02-26T02:07:53.552Z,17.17
2019-02-26T02:10:24.545Z,17.90
2019-02-26T02:12:59.569Z,18.20
2019-02-26T02:15:28.911Z,18.03
2019-02-26T02:18:01.767Z,17.20
2019-02-26T02:20:33.283Z,17.43
2019-02-26T02:23:05.341Z,17.20
2019-02-26T02:25:38.758Z,18.30
2019-02-26T02:28:10.566Z,17.90
2019-02-26T02:30:41.787Z,17.80
2019-02-26T02:33:17.257Z,18.20
2019-02-26T02:35:46.019Z,18.13
2019-02-26T02:38:20.495Z,19.40
2019-02-26T02:40:52.758Z,17.93
2019-02-26T02:43:23.626Z,18.93
2019-02-26T02:45:56.414Z,17.63
2019-02-26T02:48:28.001Z,18.00
2019-02-26T02:50:59.619Z,18.20
2019-02-26T02:53:32.465Z,17.00
2019-02-26T02:56:05.799Z,17.20
2019-02-26T02:58:38.537Z,16.60
2019-02-26T03:01:09.441Z,17.87
2019-02-26T03:03:40.920Z,16.87
2019-02-26T03:06:12.390Z,17.67
2019-02-26T03:08:45.293Z,17.67
2019-02-26T03:11:17.072Z,17.47
2019-02-26T03:13:50.721Z,18.30
2019-02-26T03:16:21.994Z,16.93
2019-02-26T03:18:54.356Z,17.27
2019-02-26T03:21:27.723Z,17.20
2019-02-26T03:24:00.921Z,18.33
2019-02-26T03:26:31.796Z,18.63
2019-02-26T03:29:03.342Z,17.50
2019-02-26T03:31:39.706Z,18.20
2019-02-26T03:34:10.403Z,18.80
2019-02-26T03:36:42.851Z,19.07
2019-02-26T03:39:13.639Z,18.87
2019-02-26T03:41:46.050Z,18.43
2019-02-26T03:44:18.083Z,19.00
2019-02-26T03:46:49.279Z,18.93
2019-02-26T03:49:20.672Z,19.00
2019-02-26T03:51:51.751Z,19.47
2019-02-26T03:54:23.066Z,17.90
2019-02-26T03:56:54.143Z,18.33
2019-02-26T03:59:25.294Z,18.80
2019-02-26T04:01:56.579Z,18.90
2019-02-26T04:04:30.467Z,18.37
2019-02-26T04:07:01.446Z,17.83
2019-02-26T04:09:33.672Z,16.97
2019-02-26T04:12:04.798Z,18.33
2019-02-26T04:14:35.955Z,17.00
2019-02-26T04:17:08.889Z,17.30
2019-02-26T04:19:43.764Z,18.57
2019-02-26T04:22:33.099Z,17.73
2019-02-26T04:25:09.388Z,17.30
2019-02-26T04:28:02.618Z,17.97
2019-02-26T04:30:58.760Z,16.90
2019-02-26T04:34:04.409Z,18.30
2019-02-26T04:37:10.330Z,17.33
2019-02-26T04:40:16.718Z,17.60
2019-02-26T04:43:33.495Z,19.00
2019-02-26T04:46:25.565Z,16.90
2019-02-26T04:48:58.383Z,17.73
2019-02-26T04:51:29.869Z,18.27
2019-02-26T04:54:02.158Z,18.10
2019-02-26T04:56:35.995Z,16.70
2019-02-26T04:59:09.252Z,16.83
2019-02-26T05:01:39.267Z,16.47
2019-02-26T05:04:10.790Z,17.70
2019-02-26T05:06:42.161Z,17.60
2019-02-26T05:09:13.476Z,17.37
2019-02-26T05:11:44.542Z,17.03
2019-02-26T05:14:20.802Z,18.13
2019-02-26T05:16:48.497Z,17.70
2019-02-26T05:19:21.767Z,17.47
2019-02-26T05:21:53.448Z,18.27
2019-02-26T05:24:26.285Z,17.73
2019-02-26T05:26:57.807Z,18.50
2019-02-26T05:29:29.315Z,19.17
2019-02-26T05:32:01.746Z,18.57
2019-02-26T05:34:33.521Z,18.87
2019-02-26T05:37:07.505Z,18.70
2019-02-26T05:39:37.835Z,17.97
2019-02-26T05:42:08.897Z,18.07
2019-02-26T05:44:40.257Z,18.77
2019-02-26T05:47:12.994Z,17.70
2019-02-26T05:49:45.818Z,18.90
2019-02-26T05:52:17.377Z,18.30
2019-02-26T05:54:48.830Z,18.23
2019-02-26T05:57:31.273Z,19.10
2019-02-26T05:59:52.954Z,17.90
2019-02-26T06:02:24.615Z,18.50
2019-02-26T06:04:56.381Z,20.23
2019-02-26T06:07:30.224Z,19.43
2019-02-26T06:10:01.636Z,18.13
2019-02-26T06:12:35.342Z,20.30
2019-02-26T06:15:08.185Z,18.67
2019-02-26T06:17:43.103Z,20.50
2019-02-26T06:20:17.989Z,19.60
2019-02-26T06:22:49.132Z,19.25
2019-02-26T06:25:24.071Z,19.83
2019-02-26T06:27:53.240Z,19.70
2019-02-26T06:30:24.444Z,19.05
2019-02-26T06:32:59.674Z,20.30
2019-02-26T06:35:28.650Z,17.95
2019-02-26T06:38:02.137Z,18.45
2019-02-26T06:40:36.684Z,18.40
2019-02-26T06:43:07.054Z,18.80
2019-02-26T06:45:41.058Z,19.60
2019-02-26T06:48:15.077Z,20.50
2019-02-26T06:50:45.565Z,19.00
2019-02-26T06:53:18.730Z,18.23
2019-02-26T06:55:49.778Z,19.30
2019-02-26T06:58:26.609Z,19.40
2019-02-26T07:00:59.354Z,19.60
2019-02-26T07:03:30.523Z,18.17
2019-02-26T07:06:04.769Z,19.37
2019-02-26T07:08:34.651Z,19.10
2019-02-26T07:11:07.496Z,19.67
2019-02-26T07:13:39.222Z,19.33
2019-02-26T07:16:11.639Z,20.10
2019-02-26T07:18:42.744Z,19.00
2019-02-26T07:21:14.032Z,19.57
2019-02-26T07:23:45.909Z,18.90
2019-02-26T07:26:18.512Z,19.83
2019-02-26T07:28:51.067Z,19.27
2019-02-26T07:31:24.271Z,19.03
2019-02-26T07:33:58.065Z,18.50
2019-02-26T07:36:29.401Z,18.33
2019-02-26T07:39:01.007Z,19.67
2019-02-26T07:41:33.954Z,19.83
2019-02-26T07:44:08.756Z,19.50
2019-02-26T07:46:40.148Z,19.47
2019-02-26T07:49:10.977Z,18.83
2019-02-26T07:51:43.044Z,20.20
2019-02-26T07:54:14.518Z,20.10
2019-02-26T07:56:46.756Z,19.50
2019-02-26T07:59:27.255Z,19.83
2019-02-26T08:01:50.885Z,20.17
2019-02-26T08:04:21.973Z,20.60
2019-02-26T08:06:54.861Z,20.27
2019-02-26T08:09:26.186Z,19.37
2019-02-26T08:11:57.621Z,21.07
2019-02-26T08:14:28.741Z,19.90
2019-02-26T08:17:01.923Z,21.33
2019-02-26T08:19:34.963Z,20.63
2019-02-26T08:22:05.994Z,20.27
2019-02-26T08:24:37.191Z,20.50
2019-02-26T08:27:11.067Z,21.17
2019-02-26T08:29:41.421Z,21.60
2019-02-26T08:32:15.934Z,21.77
2019-02-26T08:35:05.961Z,21.00
2019-02-26T08:37:37.197Z,22.37
2019-02-26T08:40:10.482Z,22.70
2019-02-26T08:42:41.817Z,23.00
2019-02-26T08:45:17.553Z,22.37
2019-02-26T08:47:48.319Z,21.97
2019-02-26T08:50:19.523Z,21.37
2019-02-26T08:52:53.486Z,22.37
2019-02-26T08:55:24.672Z,20.73
2019-02-26T08:57:56.557Z,20.93
2019-02-26T09:00:28.099Z,22.70
2019-02-26T09:02:59.830Z,21.93
2019-02-26T09:05:33.979Z,21.73
2019-02-26T09:08:05.648Z,22.50
2019-02-26T09:10:38.596Z,22.80
2019-02-26T09:13:11.423Z,22.73
2019-02-26T09:15:43.239Z,23.53
2019-02-26T09:18:14.729Z,22.00
2019-02-26T09:20:45.833Z,21.67
2019-02-26T09:23:20.811Z,21.70
2019-02-26T09:25:54.159Z,23.27
2019-02-26T09:28:24.859Z,21.83
2019-02-26T09:30:56.306Z,22.07
2019-02-26T09:33:32.668Z,24.50
2019-02-26T09:36:01.778Z,21.90
2019-02-26T09:38:33.174Z,22.57
2019-02-26T09:41:04.224Z,23.00
2019-02-26T09:43:36.196Z,22.70
2019-02-26T09:46:10.166Z,21.83
2019-02-26T09:48:43.338Z,21.77
2019-02-26T09:51:14.785Z,21.97
2019-02-26T09:53:49.367Z,21.50
2019-02-26T09:56:20.179Z,22.00
2019-02-26T09:58:51.857Z,21.80
2019-02-26T10:01:24.090Z,23.30
2019-02-26T10:03:56.090Z,22.80
2019-02-26T10:06:28.121Z,23.53
2019-02-26T10:08:59.495Z,22.53
2019-02-26T10:11:30.561Z,23.60
2019-02-26T10:14:02.932Z,24.40
2019-02-26T10:16:34.661Z,23.57
2019-02-26T10:19:07.698Z,23.70
2019-02-26T10:21:39.990Z,22.53
2019-02-26T10:24:11.897Z,22.60
2019-02-26T10:26:43.377Z,23.07
2019-02-26T10:29:14.583Z,22.00
2019-02-26T10:31:45.650Z,22.70
2019-02-26T10:34:20.392Z,21.67
2019-02-26T10:36:51.865Z,22.57
2019-02-26T10:39:23.687Z,21.83
2019-02-26T10:41:55.628Z,21.13
2019-02-26T10:44:30.298Z,21.80
2019-02-26T10:47:03.158Z,23.90
2019-02-26T10:49:34.496Z,21.97
2019-02-26T10:52:05.596Z,21.13
2019-02-26T10:54:40.365Z,21.53
2019-02-26T10:57:11.326Z,20.93
2019-02-26T10:59:44.941Z,22.07
2019-02-26T11:02:17.791Z,23.10
2019-02-26T11:04:50.395Z,22.67
2019-02-26T11:07:21.905Z,20.37
2019-02-26T11:09:55.548Z,20.37
2019-02-26T11:12:28.548Z,20.03
2019-02-26T11:15:01.709Z,19.77
2019-02-26T11:17:53.207Z,20.30
2019-02-26T11:20:36.134Z,19.30
2019-02-26T11:23:19.255Z,18.80
2019-02-26T11:25:50.549Z,18.10
2019-02-26T11:28:21.643Z,17.87
2019-02-26T11:30:54.822Z,18.30
2019-02-26T11:33:25.825Z,16.40
2019-02-26T11:36:16.222Z,17.23
2019-02-26T11:39:01.393Z,16.53
2019-02-26T11:41:35.766Z,16.90
2019-02-26T11:44:09.933Z,16.90
2019-02-26T11:46:39.743Z,17.63
2019-02-26T11:49:11.868Z,17.20
2019-02-26T11:51:43.976Z,15.87
2019-02-26T11:54:17.577Z,15.63
2019-02-26T11:56:49.805Z,15.77
2019-02-26T11:59:21.959Z,15.00
2019-02-26T12:01:54.199Z,13.93
2019-02-26T12:04:26.115Z,13.73
2019-02-26T12:07:01.042Z,13.13
2019-02-26T12:09:32.982Z,15.30
2019-02-26T12:12:06.209Z,13.43
2019-02-26T12:14:38.031Z,13.20
2019-02-26T12:17:10.177Z,14.20
2019-02-26T12:19:41.613Z,13.20
2019-02-26T12:22:12.956Z,13.53
2019-02-26T12:24:44.154Z,12.97
2019-02-26T12:27:18.154Z,13.03
2019-02-26T12:29:51.607Z,13.00
2019-02-26T12:32:22.322Z,11.20
2019-02-26T12:34:54.408Z,11.90
2019-02-26T12:37:44.753Z,11.20
2019-02-26T12:40:19.202Z,11.80
2019-02-26T12:42:49.061Z,12.00
2019-02-26T12:45:20.427Z,12.10
2019-02-26T12:47:54.922Z,11.60
2019-02-26T12:50:29.052Z,11.20
2019-02-26T12:52:58.136Z,11.10
2019-02-26T12:55:31.855Z,11.17
2019-02-26T12:58:02.366Z,11.50
2019-02-26T13:00:34.974Z,10.60
2019-02-26T13:03:09.340Z,12.20
2019-02-26T13:05:42.539Z,11.40
2019-02-26T13:08:16.319Z,10.97
2019-02-26T13:10:49.653Z,11.00
2019-02-26T13:13:18.425Z,11.13
2019-02-26T13:15:49.673Z,10.87
2019-02-26T13:18:20.962Z,10.20
2019-02-26T13:20:57.236Z,9.80
2019-02-26T13:23:25.237Z,9.50
2019-02-26T13:25:56.415Z,8.47
2019-02-26T13:28:29.719Z,9.90
2019-02-26T13:31:02.317Z,10.77
2019-02-26T13:33:37.007Z,10.40
2019-02-26T13:36:06.698Z,10.00
2019-02-26T13:38:44.634Z,9.30
2019-02-26T13:41:28.943Z,9.60
2019-02-26T13:43:43.903Z,9.00
2019-02-26T13:46:14.976Z,8.73
2019-02-26T13:48:46.369Z,8.00
2019-02-26T13:51:17.483Z,8.50
2019-02-26T13:53:48.960Z,8.20
2019-02-26T13:56:19.992Z,8.37
2019-02-26T13:58:51.450Z,8.10
2019-02-26T14:01:22.621Z,7.70
2019-02-26T14:03:54.162Z,8.03
2019-02-26T14:06:25.220Z,7.37
2019-02-26T14:08:56.965Z,6.00
2019-02-26T14:11:28.044Z,6.13
2019-02-26T14:13:59.455Z,6.90
2019-02-26T14:16:32.621Z,5.90
2019-02-26T14:19:03.688Z,6.10
2019-02-26T14:21:34.803Z,6.70
2019-02-26T14:24:06.136Z,6.17
2019-02-26T14:26:38.824Z,6.33
2019-02-26T14:29:10.294Z,6.13
2019-02-26T14:31:41.364Z,6.40
2019-02-26T14:34:12.942Z,6.20
2019-02-26T14:36:44.113Z,5.80
2019-02-26T14:39:16.030Z,6.40
2019-02-26T14:41:47.486Z,6.37
2019-02-26T14:44:19.025Z,6.90
2019-02-26T14:46:50.110Z,6.20
2019-02-26T14:49:21.534Z,6.50
2019-02-26T14:51:52.722Z,6.20
2019-02-26T14:54:23.892Z,6.37
2019-02-26T14:56:56.052Z,6.60
2019-02-26T14:59:27.780Z,6.00
2019-02-26T15:01:58.831Z,5.57
2019-02-26T15:04:30.129Z,5.73
2019-02-26T15:07:01.244Z,5.13
2019-02-26T15:09:32.532Z,5.70
2019-02-26T15:12:03.621Z,5.77
2019-02-26T15:14:34.792Z,5.90
2019-02-26T15:17:06.334Z,5.80
2019-02-26T15:19:49.199Z,5.97
2019-02-26T15:22:10.717Z,5.50
2019-02-26T15:24:42.055Z,5.00
2019-02-26T15:27:13.209Z,5.43
2019-02-26T15:29:44.549Z,4.60
2019-02-26T15:32:15.778Z,5.30
2019-02-26T15:34:47.239Z,5.57
2019-02-26T15:37:18.369Z,5.07
2019-02-26T15:39:51.300Z,5.47
2019-02-26T15:42:22.589Z,5.70
2019-02-26T15:44:54.073Z,5.13
2019-02-26T15:47:25.173Z,5.33
2019-02-26T15:49:56.469Z,5.23
2019-02-26T15:52:27.549Z,6.10
2019-02-26T15:54:58.735Z,7.47
2019-02-26T15:57:31.139Z,5.50
2019-02-26T16:00:06.290Z,5.57
2019-02-26T16:02:36.843Z,5.20
2019-02-26T16:05:09.245Z,5.33
2019-02-26T16:07:40.334Z,5.73
2019-02-26T16:10:12.035Z,6.10
2019-02-26T16:12:43.275Z,5.63
2019-02-26T16:15:14.771Z,5.47
2019-02-26T16:17:45.863Z,5.43
2019-02-26T16:20:18.817Z,5.30
2019-02-26T16:22:50.485Z,5.43
2019-02-26T16:25:21.930Z,5.80
2019-02-26T16:27:53.882Z,5.40
2019-02-26T16:30:25.907Z,5.53
2019-02-26T16:32:57.335Z,5.70
2019-02-26T16:35:28.647Z,5.47
2019-02-26T16:37:59.751Z,5.00
2019-02-26T16:40:32.316Z,4.70
2019-02-26T16:43:03.645Z,4.77
2019-02-26T16:45:35.287Z,5.13
2019-02-26T16:48:06.667Z,5.30
2019-02-26T16:50:37.971Z,5.33
2019-02-26T16:53:09.167Z,4.90
2019-02-26T16:55:40.459Z,4.97
2019-02-26T16:58:11.555Z,6.07
2019-02-26T17:00:43.288Z,5.50
2019-02-26T17:03:14.559Z,6.20
2019-02-26T17:05:47.645Z,5.57
2019-02-26T17:08:19.071Z,5.60
2019-02-26T17:10:50.412Z,6.00
2019-02-26T17:13:21.502Z,6.00
2019-02-26T17:15:53.415Z,5.10
2019-02-26T17:18:24.738Z,5.17
2019-02-26T17:20:56.988Z,6.33
2019-02-26T17:23:28.719Z,5.83
2019-02-26T17:26:00.579Z,6.27
2019-02-26T17:28:32.363Z,5.87
2019-02-26T17:31:03.759Z,6.73
2019-02-26T17:33:34.815Z,7.70
2019-02-26T17:36:06.111Z,8.23
2019-02-26T17:38:37.153Z,7.90
2019-02-26T17:41:09.961Z,8.87
2019-02-26T17:43:41.891Z,11.13
2019-02-26T17:46:13.515Z,13.60
2019-02-26T17:48:44.577Z,11.20
2019-02-26T17:51:18.746Z,12.13
2019-02-26T17:53:48.675Z,13.73
2019-02-26T17:56:20.055Z,12.47
2019-02-26T17:58:51.414Z,12.63
2019-02-26T18:01:22.727Z,13.87
2019-02-26T18:03:53.863Z,14.60
2019-02-26T18:06:25.337Z,15.40
2019-02-26T18:08:56.996Z,15.40
2019-02-26T18:11:28.231Z,16.30
2019-02-26T18:14:00.193Z,16.70
2019-02-26T18:16:34.383Z,16.53
2019-02-26T18:19:04.810Z,17.90
2019-02-26T18:21:36.015Z,16.27
2019-02-26T18:24:07.168Z,16.10
2019-02-26T18:26:38.575Z,16.67
2019-02-26T18:29:09.867Z,16.70
2019-02-26T18:31:41.104Z,16.30
2019-02-26T18:34:14.030Z,17.07
2019-02-26T18:36:45.998Z,16.30
2019-02-26T18:39:17.309Z,16.40
2019-02-26T18:41:50.784Z,17.30
2019-02-26T18:44:22.024Z,18.57
2019-02-26T18:46:53.383Z,18.10
2019-02-26T18:49:24.623Z,19.63
2019-02-26T18:51:55.961Z,19.90
2019-02-26T18:54:27.065Z,21.40
2019-02-26T18:56:58.617Z,55.27
2019-02-26T18:59:29.797Z,39.17
2019-02-26T19:02:03.319Z,43.40
2019-02-26T19:04:34.071Z,25.27
2019-02-26T19:07:05.587Z,26.00
2019-02-26T19:09:36.689Z,22.30
2019-02-26T19:12:08.499Z,24.23
2019-02-26T19:14:42.366Z,23.07
2019-02-26T19:17:13.045Z,21.70
2019-02-26T19:19:44.301Z,22.67
2019-02-26T19:22:15.552Z,24.63
2019-02-26T19:24:46.678Z,23.47
2019-02-26T19:27:19.392Z,25.03
2019-02-26T19:29:50.807Z,24.00
2019-02-26T19:32:22.263Z,24.83
2019-02-26T19:34:53.391Z,25.27
2019-02-26T19:37:24.853Z,23.70
2019-02-26T19:39:55.925Z,23.20
2019-02-26T19:42:27.265Z,24.70
2019-02-26T19:44:58.381Z,23.60
2019-02-26T19:47:29.649Z,25.27
2019-02-26T19:50:00.707Z,24.83
2019-02-26T19:52:32.156Z,25.10
2019-02-26T19:55:03.286Z,25.27
2019-02-26T19:57:34.741Z,23.97
2019-02-26T20:00:06.757Z,26.40
2019-02-26T20:02:39.906Z,22.70
2019-02-26T20:05:12.829Z,24.17
2019-02-26T20:07:44.339Z,25.10
2019-02-26T20:10:15.801Z,25.00
2019-02-26T20:12:47.243Z,26.87
2019-02-26T20:15:21.725Z,25.50
2019-02-26T20:17:51.284Z,25.13
2019-02-26T20:20:22.491Z,25.87
2019-02-26T20:22:53.873Z,24.60
2019-02-26T20:25:25.070Z,23.50
2019-02-26T20:28:04.825Z,26.40
2019-02-26T20:30:29.570Z,24.50
2019-02-26T20:33:01.554Z,27.10
2019-02-26T20:35:33.817Z,26.93
2019-02-26T20:38:05.211Z,24.20
2019-02-26T20:40:36.469Z,26.03
2019-02-26T20:43:08.039Z,27.50
2019-02-26T20:45:39.533Z,26.70
2019-02-26T20:48:11.023Z,25.97
2019-02-26T20:50:42.351Z,24.43
2019-02-26T20:53:14.487Z,26.23
2019-02-26T20:55:52.473Z,25.30
2019-02-26T20:58:19.768Z,26.23
2019-02-26T21:00:50.967Z,27.23
2019-02-26T21:03:22.794Z,26.20
2019-02-26T21:05:55.668Z,24.17
2019-02-26T21:08:30.784Z,24.03
2019-02-26T21:11:00.879Z,23.00
2019-02-26T21:13:34.674Z,24.00
2019-02-26T21:16:05.181Z,24.70
2019-02-26T21:18:39.342Z,25.27
2019-02-26T21:21:11.704Z,25.73
2019-02-26T21:23:43.613Z,24.53
2019-02-26T21:26:14.797Z,25.00
2019-02-26T21:28:46.318Z,25.67
2019-02-26T21:31:29.521Z,26.27
2019-02-26T21:34:03.746Z,25.00
2019-02-26T21:36:34.023Z,24.10
2019-02-26T21:39:10.880Z,24.67
2019-02-26T21:41:41.491Z,24.87
2019-02-26T21:44:12.924Z,23.83
2019-02-26T21:46:44.153Z,24.20
2019-02-26T21:49:15.643Z,23.50
2019-02-26T21:51:46.921Z,23.77
2019-02-26T21:54:18.451Z,22.40
2019-02-26T21:56:49.681Z,23.20
2019-02-26T21:59:21.137Z,22.13
2019-02-26T22:01:52.419Z,21.53
2019-02-26T22:04:24.187Z,23.83
2019-02-26T22:06:55.377Z,22.80
2019-02-26T22:09:29.954Z,23.20
2019-02-26T22:11:59.735Z,23.13
2019-02-26T22:14:31.414Z,23.00
2019-02-26T22:17:04.318Z,23.77
2019-02-26T22:19:37.751Z,24.50
2019-02-26T22:22:08.873Z,24.40
2019-02-26T22:24:40.795Z,26.27
2019-02-26T22:27:12.109Z,25.20
2019-02-26T22:29:55.131Z,24.67
2019-02-26T22:32:26.413Z,23.30
2019-02-26T22:34:57.857Z,23.80
2019-02-26T22:37:29.067Z,24.53
2019-02-26T22:40:00.668Z,25.00
2019-02-26T22:42:31.971Z,23.43
2019-02-26T22:45:03.393Z,23.57
2019-02-26T22:47:34.947Z,24.10
2019-02-26T22:50:07.903Z,24.67
2019-02-26T22:52:39.503Z,25.43
2019-02-26T22:55:16.011Z,25.13
2019-02-26T22:57:44.160Z,23.00
2019-02-26T23:00:35.587Z,24.17
2019-02-26T23:03:10.733Z,24.47
2019-02-26T23:05:41.695Z,24.33
2019-02-26T23:08:13.094Z,24.33
2019-02-26T23:10:57.504Z,25.57
2019-02-26T23:13:31.868Z,25.13
2019-02-26T23:16:03.187Z,27.00
2019-02-26T23:18:35.000Z,24.70
2019-02-26T23:21:07.271Z,25.20
2019-02-26T23:23:38.650Z,25.57
2019-02-26T23:26:10.843Z,24.10
2019-02-26T23:28:42.621Z,23.93
2019-02-26T23:31:16.194Z,24.50
2019-02-26T23:33:48.444Z,24.03
2019-02-26T23:36:20.427Z,23.57
2019-02-26T23:38:51.601Z,24.50
2019-02-26T23:41:24.352Z,24.30
2019-02-26T23:43:55.523Z,24.27
2019-02-26T23:46:29.531Z,24.03
2019-02-26T23:48:59.751Z,25.73
2019-02-26T23:51:31.283Z,24.50
2019-02-26T23:54:04.689Z,24.00
2019-02-26T23:56:35.619Z,25.73
2019-02-26T23:59:06.899Z,26.10
